Time;durP1;ratioP1;P1;durP2;ratioP2;P2;SDS_P1;SDS_P2;PMS_P1;PMS_P2;Temp;Humidity;BMP_temperature;BMP_pressure;BME280_temperature;BME280_humidity;BME280_pressure;Samples;Min_cycle;Max_cycle;Signal;HPM_P1;HPM_P2
2021/07/29 00:00:37;;;;;;;13.52;4.22;;;23.00;74.60;;;;;;5028464;28;20029;-86
2021/07/29 00:03:04;;;;;;;23.20;4.88;;;23.00;75.00;;;;;;5028378;28;20057;-87
2021/07/29 00:05:30;;;;;;;20.33;4.57;;;23.00;75.60;;;;;;5010201;28;20532;-87
2021/07/29 00:07:56;;;;;;;14.05;4.20;;;23.00;76.20;;;;;;5027955;28;20029;-87
2021/07/29 00:10:23;;;;;;;14.65;4.47;;;23.00;76.60;;;;;;5009847;28;20361;-88
2021/07/29 00:12:49;;;;;;;31.38;5.10;;;23.00;77.10;;;;;;5011463;28;20032;-89
2021/07/29 00:15:16;;;;;;;9.25;2.95;;;23.00;78.00;;;;;;5011595;28;20032;-88
2021/07/29 00:20:17;;;;;;;25.85;4.53;;;23.00;79.20;;;;;;5028581;28;20033;-90
2021/07/29 00:22:44;;;;;;;15.82;4.10;;;23.00;80.40;;;;;;5030150;28;20441;-88
2021/07/29 00:25:12;;;;;;;24.08;5.13;;;22.90;80.90;;;;;;5011837;28;20494;-88
2021/07/29 00:27:39;;;;;;;16.90;4.13;;;22.90;81.20;;;;;;5027887;28;20502;-87
2021/07/29 00:30:05;;;;;;;17.00;4.63;;;22.90;81.60;;;;;;5009885;28;20045;-86
2021/07/29 00:32:31;;;;;;;14.75;3.80;;;22.80;81.80;;;;;;5010333;28;20021;-89
2021/07/29 00:34:57;;;;;;;14.30;3.53;;;22.80;82.60;;;;;;5011315;28;20039;-87
2021/07/29 00:37:23;;;;;;;10.95;3.47;;;22.80;83.20;;;;;;5011409;28;20128;-89
2021/07/29 00:39:48;;;;;;;11.77;3.33;;;22.80;83.60;;;;;;5011884;28;20026;-88
2021/07/29 00:42:14;;;;;;;18.02;3.42;;;22.80;84.60;;;;;;5011674;28;20022;-87
2021/07/29 00:44:39;;;;;;;10.93;3.08;;;22.70;85.30;;;;;;5011614;28;20041;-87
2021/07/29 00:47:10;;;;;;;12.43;3.28;;;22.70;85.90;;;;;;5011461;28;20021;-88
2021/07/29 00:49:36;;;;;;;6.47;2.80;;;22.70;87.20;;;;;;5012096;28;20045;-88
2021/07/29 00:52:03;;;;;;;14.02;2.65;;;22.60;87.50;;;;;;5014469;28;20072;-85
2021/07/29 00:54:29;;;;;;;14.30;2.35;;;22.60;87.80;;;;;;5013811;28;20055;-85
2021/07/29 00:56:57;;;;;;;13.90;2.70;;;22.60;88.00;;;;;;5031333;28;20087;-85
2021/07/29 00:59:23;;;;;;;13.27;3.13;;;22.60;89.10;;;;;;5015984;28;20482;-89
2021/07/29 01:01:49;;;;;;;23.48;2.83;;;22.50;88.50;;;;;;5016150;28;20029;-91
2021/07/29 01:04:15;;;;;;;14.70;2.55;;;22.40;89.00;;;;;;5032868;28;20118;-90
2021/07/29 01:06:41;;;;;;;18.23;4.13;;;22.40;89.30;;;;;;5014967;28;20036;-87
2021/07/29 01:09:09;;;;;;;17.38;2.78;;;22.30;90.00;;;;;;5014163;28;20124;-85
2021/07/29 01:11:40;;;;;;;16.58;2.97;;;22.20;90.00;;;;;;5013865;28;20032;-88
2021/07/29 01:14:06;;;;;;;15.30;3.30;;;22.20;90.00;;;;;;5014677;28;20025;-89
2021/07/29 01:16:33;;;;;;;24.70;3.38;;;22.10;90.00;;;;;;5014612;28;20753;-89
2021/07/29 01:18:59;;;;;;;8.30;3.65;;;22.00;90.10;;;;;;5015028;28;20022;-91
2021/07/29 01:21:27;;;;;;;10.45;3.63;;;22.00;90.30;;;;;;5032459;28;20064;-88
2021/07/29 01:23:53;;;;;;;6.78;3.05;;;21.90;90.40;;;;;;5014620;28;20018;-89
2021/07/29 01:26:18;;;;;;;18.30;3.42;;;21.90;90.50;;;;;;5014171;28;20044;-88
2021/07/29 01:28:44;;;;;;;15.65;3.10;;;21.90;91.00;;;;;;5013614;28;20030;-88
2021/07/29 01:31:10;;;;;;;16.48;3.85;;;21.90;91.30;;;;;;5015222;28;20033;-90
2021/07/29 01:33:36;;;;;;;10.90;2.75;;;21.90;91.60;;;;;;5015624;28;20072;-91
2021/07/29 01:36:02;;;;;;;7.68;2.70;;;21.90;91.80;;;;;;5015022;28;20107;-91
2021/07/29 01:38:28;;;;;;;5.20;2.60;;;21.90;92.00;;;;;;5015406;28;20041;-90
2021/07/29 01:40:54;;;;;;;8.52;2.75;;;21.80;92.00;;;;;;5015257;28;20033;-90
2021/07/29 01:43:21;;;;;;;8.27;2.60;;;21.80;92.10;;;;;;5015235;28;20053;-89
2021/07/29 01:45:47;;;;;;;18.70;2.90;;;21.80;92.10;;;;;;5014614;28;20437;-88
2021/07/29 01:48:13;;;;;;;14.82;2.92;;;21.70;92.00;;;;;;5031138;28;20121;-87
2021/07/29 01:50:39;;;;;;;8.65;2.47;;;21.70;92.10;;;;;;5012700;28;20124;-86
2021/07/29 01:53:04;;;;;;;5.47;2.63;;;21.70;92.30;;;;;;5030769;28;20029;-87
2021/07/29 01:55:30;;;;;;;16.30;2.42;;;21.80;92.30;;;;;;5012736;28;20079;-87
2021/07/29 01:57:56;;;;;;;14.30;2.53;;;21.70;92.40;;;;;;5030668;28;20079;-89
2021/07/29 02:00:24;;;;;;;14.35;2.80;;;21.70;92.40;;;;;;5012748;28;20029;-87
2021/07/29 02:02:50;;;;;;;13.90;2.22;;;21.80;92.70;;;;;;5011654;28;20033;-86
2021/07/29 02:05:16;;;;;;;6.78;2.13;;;21.80;92.70;;;;;;5012336;28;20091;-88
2021/07/29 02:07:41;;;;;;;13.20;2.50;;;21.80;92.70;;;;;;5030503;28;20445;-87
2021/07/29 02:10:07;;;;;;;6.38;2.30;;;21.80;92.60;;;;;;5011981;28;20073;-87
2021/07/29 02:12:33;;;;;;;7.43;2.83;;;21.80;92.70;;;;;;5013016;28;20470;-84
2021/07/29 02:15:00;;;;;;;10.65;2.83;;;21.80;92.60;;;;;;5012301;28;20080;-87
2021/07/29 02:17:25;;;;;;;6.70;2.58;;;21.80;92.70;;;;;;5029967;28;20619;-85
2021/07/29 02:19:51;;;;;;;10.00;2.72;;;21.90;92.90;;;;;;5011699;28;20497;-85
2021/07/29 02:22:17;;;;;;;7.55;2.88;;;21.90;93.10;;;;;;5012714;28;20036;-88
2021/07/29 02:24:43;;;;;;;9.27;2.65;;;21.90;93.40;;;;;;5012598;28;20486;-87
2021/07/29 02:27:09;;;;;;;5.95;2.92;;;21.90;93.40;;;;;;5012564;28;20031;-85
2021/07/29 02:29:35;;;;;;;5.35;2.92;;;21.90;93.50;;;;;;5012632;28;20029;-89
2021/07/29 02:32:00;;;;;;;11.98;2.90;;;21.90;93.50;;;;;;5030259;28;20032;-88
2021/07/29 02:34:26;;;;;;;12.13;3.30;;;21.90;93.40;;;;;;5012659;28;20030;-87
2021/07/29 02:36:52;;;;;;;11.88;3.13;;;22.00;93.40;;;;;;5011963;28;20110;-87
2021/07/29 02:39:17;;;;;;;6.25;2.22;;;22.00;93.00;;;;;;5012398;28;20037;-89
2021/07/29 02:41:43;;;;;;;8.27;2.60;;;22.00;93.00;;;;;;5012175;28;20022;-88
2021/07/29 02:44:09;;;;;;;7.05;2.63;;;22.00;92.90;;;;;;5012810;28;20483;-87
2021/07/29 02:46:34;;;;;;;8.15;2.80;;;22.00;92.90;;;;;;5029218;28;20060;-85
2021/07/29 02:49:00;;;;;;;10.40;3.08;;;22.00;92.90;;;;;;5010572;28;20410;-84
2021/07/29 02:51:26;;;;;;;13.75;2.97;;;22.00;92.90;;;;;;5011454;28;20053;-85
2021/07/29 02:53:51;;;;;;;8.90;2.75;;;22.10;92.80;;;;;;5029108;28;20036;-86
2021/07/29 02:56:17;;;;;;;9.32;3.08;;;22.00;92.80;;;;;;5012490;28;20047;-87
2021/07/29 02:58:44;;;;;;;14.25;3.10;;;22.10;92.80;;;;;;5011348;28;20401;-88
2021/07/29 03:01:10;;;;;;;10.50;2.70;;;22.10;92.80;;;;;;5011497;28;20401;-86
2021/07/29 03:03:36;;;;;;;10.50;4.88;;;22.10;92.80;;;;;;5012443;28;20128;-89
2021/07/29 03:06:01;;;;;;;7.65;2.92;;;22.20;93.00;;;;;;5012800;28;20121;-89
2021/07/29 03:08:27;;;;;;;8.55;2.40;;;22.10;93.00;;;;;;5012464;28;20457;-88
2021/07/29 03:10:53;;;;;;;14.20;3.75;;;22.00;93.10;;;;;;5008156;28;20041;-85
2021/07/29 03:13:19;;;;;;;10.13;4.00;;;22.00;93.40;;;;;;5006978;28;20052;-87
2021/07/29 03:15:45;;;;;;;9.75;2.22;;;22.00;93.50;;;;;;5024855;28;20536;-87
2021/07/29 03:18:11;;;;;;;13.50;2.90;;;22.00;93.70;;;;;;4995941;28;20055;-87
2021/07/29 03:20:39;;;;;;;12.15;3.22;;;22.00;94.00;;;;;;4987592;28;20280;-89
2021/07/29 03:23:05;;;;;;;6.53;3.00;;;21.90;94.50;;;;;;4988034;28;20585;-87
2021/07/29 03:25:31;;;;;;;12.88;3.38;;;21.90;94.70;;;;;;4987965;28;20034;-86
2021/07/29 03:27:57;;;;;;;10.20;3.40;;;21.80;94.80;;;;;;4987608;28;20079;-88
2021/07/29 03:30:22;;;;;;;10.07;4.32;;;21.80;95.00;;;;;;4990084;28;20100;-88
2021/07/29 03:32:48;;;;;;;8.13;3.40;;;21.80;95.00;;;;;;5008188;28;20061;-88
2021/07/29 03:35:14;;;;;;;13.40;4.72;;;21.80;95.00;;;;;;5008711;28;20071;-91
2021/07/29 03:37:40;;;;;;;10.95;4.45;;;21.80;95.00;;;;;;5008807;28;20056;-91
2021/07/29 03:40:06;;;;;;;13.35;4.03;;;21.80;94.90;;;;;;5009057;28;20125;-90
2021/07/29 03:42:33;;;;;;;7.93;3.95;;;21.80;94.80;;;;;;5008239;28;20448;-90
2021/07/29 03:44:59;;;;;;;7.10;4.00;;;21.90;94.70;;;;;;5026513;28;20112;-90
2021/07/29 03:47:25;;;;;;;10.40;3.72;;;21.90;94.60;;;;;;5008503;28;20147;-90
2021/07/29 03:49:51;;;;;;;7.80;4.57;;;22.00;94.60;;;;;;5008083;28;20472;-88
2021/07/29 03:52:17;;;;;;;5.97;4.63;;;22.10;94.40;;;;;;5008215;28;20088;-88
2021/07/29 03:54:43;;;;;;;12.27;4.45;;;22.10;94.30;;;;;;5008127;28;20124;-90
2021/07/29 03:57:09;;;;;;;12.05;3.97;;;22.10;94.20;;;;;;5008178;28;20036;-89
2021/07/29 03:59:38;;;;;;;7.93;3.78;;;22.10;94.10;;;;;;5007718;28;20021;-89
2021/07/29 04:02:10;;;;;;;9.93;3.85;;;22.10;94.00;;;;;;5007919;28;20053;-89
2021/07/29 04:04:38;;;;;;;6.10;3.80;;;22.10;94.00;;;;;;5007994;28;20061;-88
2021/07/29 04:07:04;;;;;;;7.18;4.05;;;22.10;94.00;;;;;;5008859;28;20317;-88
2021/07/29 04:09:29;;;;;;;6.72;4.22;;;22.10;94.00;;;;;;5008231;28;20037;-90
2021/07/29 04:11:55;;;;;;;7.35;3.67;;;22.00;94.00;;;;;;5008823;28;20026;-88
2021/07/29 04:14:21;;;;;;;6.60;3.65;;;22.00;94.00;;;;;;5026252;28;20029;-89
2021/07/29 04:16:46;;;;;;;6.63;3.70;;;22.00;94.00;;;;;;5007847;28;20029;-88
2021/07/29 04:19:12;;;;;;;5.45;3.50;;;22.10;94.10;;;;;;5008386;28;20116;-88
2021/07/29 04:21:37;;;;;;;5.30;3.42;;;22.00;94.00;;;;;;5008567;28;20152;-87
2021/07/29 04:24:03;;;;;;;8.70;3.95;;;22.10;94.00;;;;;;5026634;28;20060;-92
2021/07/29 04:26:29;;;;;;;7.35;4.22;;;22.20;93.80;;;;;;5009547;28;20040;-90
2021/07/29 04:28:54;;;;;;;8.63;4.53;;;22.40;93.50;;;;;;5008094;28;20025;-90
2021/07/29 04:31:20;;;;;;;6.85;3.97;;;22.70;92.80;;;;;;5009209;28;20176;-86
2021/07/29 04:33:46;;;;;;;7.85;3.88;;;23.00;92.20;;;;;;5008460;28;20079;-93
2021/07/29 04:36:11;;;;;;;6.93;3.55;;;23.20;91.60;;;;;;5009620;28;20510;-90
2021/07/29 04:38:37;;;;;;;13.32;3.75;;;23.40;91.10;;;;;;5009493;28;20124;-91
2021/07/29 04:41:06;;;;;;;8.77;3.85;;;23.50;90.90;;;;;;5008038;28;20539;-86
2021/07/29 04:43:32;;;;;;;8.65;3.35;;;23.60;90.80;;;;;;5007586;28;20033;-86
2021/07/29 04:46:02;;;;;;;6.65;3.30;;;23.80;90.10;;;;;;5007832;28;20037;-87
2021/07/29 04:48:29;;;;;;;7.60;3.22;;;23.90;89.60;;;;;;5006310;28;20388;-87
2021/07/29 04:50:59;;;;;;;8.07;3.60;;;24.10;88.80;;;;;;5008010;28;20042;-91
2021/07/29 04:53:25;;;;;;;6.15;3.13;;;24.10;88.10;;;;;;5008226;28;20520;-87
2021/07/29 04:55:50;;;;;;;9.25;3.70;;;24.10;87.70;;;;;;5007983;28;20038;-85
2021/07/29 04:58:16;;;;;;;10.80;4.30;;;24.20;87.70;;;;;;5007890;28;20025;-86
2021/07/29 05:00:41;;;;;;;5.28;3.35;;;24.20;87.60;;;;;;5007365;28;20624;-88
2021/07/29 05:03:07;;;;;;;9.18;3.80;;;24.30;87.40;;;;;;5007795;28;20026;-86
2021/07/29 05:05:33;;;;;;;5.90;3.15;;;24.50;87.10;;;;;;5007236;28;20032;-87
2021/07/29 05:07:58;;;;;;;6.57;3.20;;;24.60;86.60;;;;;;5007702;28;20033;-87
2021/07/29 05:10:24;;;;;;;6.15;3.42;;;24.60;86.30;;;;;;5007515;28;20040;-87
2021/07/29 05:12:50;;;;;;;5.88;3.88;;;24.60;85.90;;;;;;5010215;28;20091;-85
2021/07/29 05:15:15;;;;;;;8.18;4.57;;;24.70;85.80;;;;;;5010724;28;20088;-86
2021/07/29 05:17:41;;;;;;;6.15;3.75;;;24.60;86.50;;;;;;5010496;28;20033;-86
2021/07/29 05:20:10;;;;;;;7.55;3.83;;;24.60;86.40;;;;;;5010142;28;20079;-87
2021/07/29 05:22:35;;;;;;;7.70;3.90;;;24.60;86.60;;;;;;5009917;28;20034;-87
2021/07/29 05:25:01;;;;;;;9.80;3.95;;;24.60;86.80;;;;;;5010749;28;20025;-86
2021/07/29 05:27:27;;;;;;;9.32;3.67;;;24.70;86.70;;;;;;5028459;28;20393;-86
2021/07/29 05:29:52;;;;;;;7.20;3.85;;;24.60;86.80;;;;;;5010078;28;20060;-88
2021/07/29 05:32:18;;;;;;;6.43;3.17;;;24.70;86.40;;;;;;5010488;28;20025;-87
2021/07/29 05:34:44;;;;;;;5.80;3.22;;;24.90;85.80;;;;;;5027705;28;20064;-86
2021/07/29 05:37:09;;;;;;;5.70;3.58;;;25.00;84.80;;;;;;5011897;28;20069;-86
2021/07/29 05:39:35;;;;;;;6.22;3.80;;;25.20;84.20;;;;;;5013669;28;20688;-87
2021/07/29 05:42:03;;;;;;;11.88;3.80;;;25.20;83.60;;;;;;5012643;28;20375;-88
2021/07/29 05:44:29;;;;;;;6.28;3.08;;;25.20;84.00;;;;;;5013909;28;20478;-86
2021/07/29 05:46:55;;;;;;;6.15;3.85;;;25.20;84.20;;;;;;5031349;28;20028;-87
2021/07/29 05:49:20;;;;;;;9.20;3.90;;;25.20;84.20;;;;;;5013521;28;20045;-83
2021/07/29 05:51:46;;;;;;;9.95;4.13;;;25.30;83.70;;;;;;5012115;28;20049;-83
2021/07/29 05:54:11;;;;;;;7.05;3.40;;;25.70;82.20;;;;;;5012455;28;20068;-85
2021/07/29 05:56:37;;;;;;;8.52;4.20;;;26.30;80.20;;;;;;5013277;28;20060;-86
2021/07/29 05:59:03;;;;;;;7.18;3.13;;;26.90;77.20;;;;;;5013368;28;20446;-86
2021/07/29 06:01:28;;;;;;;10.10;3.85;;;27.60;74.60;;;;;;5011599;28;20033;-83
2021/07/29 06:03:55;;;;;;;11.48;3.55;;;28.10;72.40;;;;;;5011529;28;20026;-82
2021/07/29 06:06:21;;;;;;;11.05;3.53;;;28.50;70.20;;;;;;5012229;28;20030;-83
2021/07/29 06:08:53;;;;;;;6.03;3.75;;;28.90;68.30;;;;;;5012763;28;20095;-86
2021/07/29 06:11:18;;;;;;;4.82;2.65;;;29.40;66.60;;;;;;5013440;28;20556;-85
2021/07/29 06:13:44;;;;;;;10.48;3.33;;;30.00;64.50;;;;;;5030966;28;20049;-85
2021/07/29 06:16:10;;;;;;;8.73;3.80;;;30.80;61.90;;;;;;5012631;28;20048;-83
2021/07/29 06:18:42;;;;;;;8.40;2.92;;;31.60;58.90;;;;;;5011841;28;20029;-83
2021/07/29 06:21:07;;;;;;;5.10;2.85;;;32.30;56.40;;;;;;5011292;28;20486;-81
2021/07/29 06:23:33;;;;;;;7.03;3.33;;;33.00;53.60;;;;;;5010582;28;20060;-81
2021/07/29 06:25:59;;;;;;;4.82;3.10;;;33.60;51.50;;;;;;5028990;28;20033;-81
2021/07/29 06:28:31;;;;;;;5.57;3.42;;;34.00;50.30;;;;;;5028993;28;20029;-81
2021/07/29 06:30:56;;;;;;;5.75;2.83;;;34.40;48.80;;;;;;5027819;28;20481;-81
2021/07/29 06:33:22;;;;;;;5.38;3.30;;;34.50;48.10;;;;;;5010734;28;20056;-81
2021/07/29 06:35:47;;;;;;;6.10;2.88;;;34.60;47.60;;;;;;5028373;28;20056;-81
2021/07/29 06:38:13;;;;;;;6.63;3.47;;;34.50;47.50;;;;;;5028058;28;20033;-81
2021/07/29 06:40:39;;;;;;;6.70;3.38;;;34.60;47.40;;;;;;5028507;28;20036;-81
2021/07/29 06:43:05;;;;;;;5.63;3.10;;;34.90;46.40;;;;;;5010121;28;20117;-82
2021/07/29 06:45:30;;;;;;;7.43;3.22;;;35.30;46.00;;;;;;5010288;28;20275;-81
2021/07/29 06:47:56;;;;;;;6.30;2.85;;;35.30;45.50;;;;;;5027618;28;20060;-81
2021/07/29 06:50:21;;;;;;;9.95;3.47;;;35.40;45.10;;;;;;5027862;28;20052;-81
2021/07/29 06:52:47;;;;;;;7.55;3.13;;;35.50;44.80;;;;;;5028133;28;20074;-81
2021/07/29 06:55:13;;;;;;;10.57;3.13;;;35.70;44.20;;;;;;5010440;28;20505;-81
2021/07/29 06:57:38;;;;;;;5.50;2.72;;;35.90;43.60;;;;;;5009872;28;20029;-80
2021/07/29 07:00:05;;;;;;;6.70;3.33;;;35.90;43.50;;;;;;5027524;28;20229;-80
2021/07/29 07:02:30;;;;;;;5.63;3.03;;;35.80;43.60;;;;;;5009423;28;20091;-80
2021/07/29 07:04:56;;;;;;;5.88;3.22;;;35.80;43.80;;;;;;5027223;28;20498;-80
2021/07/29 07:07:22;;;;;;;5.75;2.92;;;35.90;43.30;;;;;;5009920;28;20033;-79
2021/07/29 07:09:48;;;;;;;7.63;3.53;;;35.90;43.70;;;;;;5009681;28;20395;-79
2021/07/29 07:12:13;;;;;;;4.38;2.90;;;35.70;44.20;;;;;;5009556;28;20021;-80
2021/07/29 07:14:39;;;;;;;4.65;2.80;;;35.80;43.90;;;;;;5009732;28;20033;-78
2021/07/29 07:17:06;;;;;;;7.47;2.85;;;36.00;43.50;;;;;;5027796;28;20076;-79
2021/07/29 07:19:32;;;;;;;5.75;2.50;;;36.10;43.50;;;;;;5027789;28;20034;-78
2021/07/29 07:21:58;;;;;;;5.05;3.03;;;36.20;43.00;;;;;;5027148;28;20033;-79
2021/07/29 07:24:24;;;;;;;4.40;2.88;;;36.80;41.30;;;;;;5027739;28;20044;-78
2021/07/29 07:26:50;;;;;;;9.45;3.25;;;36.90;40.90;;;;;;5027410;28;20095;-77
2021/07/29 07:29:15;;;;;;;6.00;2.63;;;36.90;40.50;;;;;;5027190;28;20041;-79
2021/07/29 07:31:41;;;;;;;5.00;2.65;;;36.80;40.80;;;;;;5009552;28;20033;-79
2021/07/29 07:34:06;;;;;;;5.75;3.05;;;36.80;40.70;;;;;;5009240;28;20041;-79
2021/07/29 07:36:32;;;;;;;5.13;2.83;;;36.70;40.70;;;;;;5009664;28;20050;-79
2021/07/29 07:38:58;;;;;;;8.55;3.10;;;36.60;40.70;;;;;;5009492;28;20029;-78
2021/07/29 07:41:23;;;;;;;4.25;2.70;;;36.70;41.30;;;;;;5009131;28;20033;-78
2021/07/29 07:43:49;;;;;;;7.47;2.95;;;36.70;40.80;;;;;;5025686;28;20025;-78
2021/07/29 07:46:15;;;;;;;6.38;3.17;;;36.80;41.10;;;;;;5007676;28;20646;-80
2021/07/29 07:48:40;;;;;;;3.53;2.75;;;36.90;40.90;;;;;;5025334;28;20537;-80
2021/07/29 07:51:06;;;;;;;7.00;3.33;;;37.30;40.20;;;;;;5008224;28;20040;-80
2021/07/29 07:53:32;;;;;;;16.90;2.53;;;37.20;40.20;;;;;;5025663;28;20479;-80
2021/07/29 07:56:02;;;;;;;10.98;2.78;;;37.30;40.10;;;;;;5025440;28;20470;-81
2021/07/29 07:58:28;;;;;;;12.73;2.80;;;37.50;39.90;;;;;;5022613;28;20391;-82
2021/07/29 08:00:53;;;;;;;7.40;2.95;;;37.60;39.70;;;;;;5024678;28;20026;-81
2021/07/29 08:03:19;;;;;;;6.95;2.85;;;37.80;38.80;;;;;;5025503;28;20112;-81
2021/07/29 08:05:44;;;;;;;9.10;2.47;;;37.70;38.70;;;;;;5026035;28;20024;-79
2021/07/29 08:08:10;;;;;;;6.50;2.72;;;38.00;38.50;;;;;;5025129;28;20051;-79
2021/07/29 08:10:37;;;;;;;4.22;2.75;;;38.30;37.80;;;;;;5025407;28;20029;-79
2021/07/29 08:13:04;;;;;;;6.10;2.83;;;38.50;37.80;;;;;;5007700;28;20017;-79
2021/07/29 08:15:30;;;;;;;7.00;3.15;;;38.60;37.00;;;;;;5008258;28;20068;-82
2021/07/29 08:17:56;;;;;;;4.25;2.67;;;38.50;37.30;;;;;;5007939;28;20017;-81
2021/07/29 08:20:24;;;;;;;3.72;2.50;;;38.70;37.20;;;;;;5026405;28;20103;-81
2021/07/29 08:22:53;;;;;;;11.55;2.63;;;38.90;36.80;;;;;;5008313;28;20033;-80
2021/07/29 08:25:21;;;;;;;7.03;2.78;;;39.10;36.80;;;;;;5026500;28;20088;-78
2021/07/29 08:27:52;;;;;;;5.68;2.60;;;39.20;36.10;;;;;;5009221;28;20025;-81
2021/07/29 08:30:18;;;;;;;5.20;2.83;;;39.40;35.50;;;;;;5026113;28;20490;-84
2021/07/29 08:32:44;;;;;;;5.43;2.50;;;39.20;36.10;;;;;;5026248;28;20030;-80
2021/07/29 08:35:13;;;;;;;4.63;2.60;;;39.30;36.20;;;;;;5009050;28;20029;-80
2021/07/29 08:37:44;;;;;;;5.90;2.70;;;39.50;35.90;;;;;;5027398;28;20121;-79
2021/07/29 08:40:11;;;;;;;5.20;2.70;;;39.50;35.20;;;;;;5008804;28;20029;-80
2021/07/29 08:42:37;;;;;;;6.43;2.78;;;39.40;35.50;;;;;;5026210;28;20026;-81
2021/07/29 08:45:03;;;;;;;4.03;2.90;;;39.40;35.60;;;;;;5026193;28;20041;-79
2021/07/29 08:47:32;;;;;;;7.65;3.15;;;39.10;35.50;;;;;;5008512;28;20018;-80
2021/07/29 08:50:01;;;;;;;7.05;2.70;;;39.00;36.00;;;;;;5008322;28;20036;-78
2021/07/29 08:52:26;;;;;;;7.75;3.92;;;39.20;36.00;;;;;;5026125;28;20025;-80
2021/07/29 08:54:52;;;;;;;7.70;3.10;;;39.40;35.90;;;;;;5007400;28;20829;-79
2021/07/29 08:57:28;;;;;;;10.35;3.15;;;39.30;35.40;;;;;;5026090;28;20675;-80
2021/07/29 08:59:55;;;;;;;5.13;2.95;;;39.40;35.50;;;;;;5008077;28;20041;-79
2021/07/29 09:02:25;;;;;;;7.75;2.92;;;39.10;35.60;;;;;;5025984;28;20028;-81
2021/07/29 09:05:17;;;;;;;6.38;2.88;;;38.70;36.10;;;;;;5026024;28;20089;-81
2021/07/29 09:08:02;;;;;;;6.20;3.50;;;39.00;35.80;;;;;;5008462;28;20083;-80
2021/07/29 09:10:28;;;;;;;;;;;38.80;35.80;;;;;;5009888;28;20037;-80
2021/07/29 09:13:31;;;;;;;7.75;3.47;;;38.80;35.90;;;;;;5029796;28;19932;-80
2021/07/29 09:16:09;;;;;;;5.45;3.00;;;39.10;35.90;;;;;;4968287;28;20026;-80
2021/07/29 09:18:36;;;;;;;6.80;3.60;;;39.20;35.90;;;;;;5023219;28;20048;-80
2021/07/29 09:21:12;;;;;;;5.10;2.70;;;39.40;35.40;;;;;;5029593;28;20920;-80
2021/07/29 09:23:37;;;;;;;7.75;2.85;;;39.60;35.10;;;;;;5029671;28;20561;-80
2021/07/29 09:26:03;;;;;;;7.85;3.35;;;39.80;34.40;;;;;;5029732;28;20048;-80
2021/07/29 09:28:37;;;;;;;5.35;2.92;;;39.50;35.10;;;;;;5029116;28;20083;-79
2021/07/29 09:31:21;;;;;;;6.20;2.83;;;39.80;34.50;;;;;;5028728;28;20075;-79
2021/07/29 09:34:02;;;;;;;6.55;3.05;;;40.00;34.70;;;;;;5026947;28;20057;-80
2021/07/29 09:36:32;;;;;;;5.68;3.15;;;39.80;34.50;;;;;;5028380;28;20053;-80
2021/07/29 09:39:20;;;;;;;5.10;2.90;;;39.90;34.60;;;;;;5027831;28;20493;-81
2021/07/29 09:41:51;;;;;;;5.03;2.92;;;40.20;34.10;;;;;;5006132;28;20052;-80
2021/07/29 09:44:40;;;;;;;7.05;2.88;;;40.00;33.80;;;;;;5027295;28;20061;-80
2021/07/29 09:47:06;;;;;;;3.35;2.60;;;40.00;34.60;;;;;;5021504;28;20518;-79
2021/07/29 09:49:34;;;;;;;11.35;3.03;;;40.00;34.30;;;;;;5027073;28;20037;-78
2021/07/29 09:52:01;;;;;;;8.00;3.30;;;39.90;34.10;;;;;;5009435;28;20032;-80
2021/07/29 09:54:28;;;;;;;9.80;2.80;;;39.60;34.70;;;;;;5026690;28;20511;-80
2021/07/29 09:56:54;;;;;;;5.82;3.30;;;39.60;34.80;;;;;;5003503;28;20148;-79
2021/07/29 09:59:20;;;;;;;4.15;2.90;;;39.90;34.30;;;;;;5007344;28;20069;-79
2021/07/29 10:01:47;;;;;;;4.75;2.70;;;40.10;33.90;;;;;;5008983;28;20429;-80
2021/07/29 10:04:14;;;;;;;4.07;2.63;;;40.30;34.00;;;;;;5004194;28;20102;-79
2021/07/29 10:06:41;;;;;;;5.55;3.42;;;40.10;34.20;;;;;;5027743;28;20018;-80
2021/07/29 10:09:12;;;;;;;5.00;3.33;;;40.00;34.30;;;;;;5026679;28;20044;-80
2021/07/29 10:11:42;;;;;;;7.15;3.10;;;40.00;33.80;;;;;;5027470;28;20018;-80
2021/07/29 10:14:11;;;;;;;6.63;3.30;;;39.90;33.50;;;;;;5005068;28;20049;-79
2021/07/29 10:16:52;;;;;;;5.28;3.33;;;39.50;34.30;;;;;;5028714;28;20037;-81
2021/07/29 10:19:18;;;;;;;10.80;3.15;;;38.90;35.70;;;;;;5010899;28;20033;-79
2021/07/29 10:21:44;;;;;;;6.03;3.13;;;38.10;35.80;;;;;;5027088;28;20032;-80
2021/07/29 10:24:11;;;;;;;4.78;2.60;;;37.40;36.50;;;;;;5028183;28;20096;-79
2021/07/29 10:26:58;;;;;;;5.55;3.30;;;37.00;36.90;;;;;;5028754;28;20029;-80
2021/07/29 10:29:25;;;;;;;8.73;3.17;;;36.60;37.60;;;;;;5028168;28;20040;-79
2021/07/29 10:31:59;;;;;;;6.32;3.00;;;35.90;37.70;;;;;;5028270;28;20116;-80
2021/07/29 10:34:29;;;;;;;4.32;3.30;;;35.30;39.10;;;;;;5010732;28;20564;-79
2021/07/29 10:36:57;;;;;;;4.60;2.92;;;34.90;40.10;;;;;;5028342;28;20060;-79
2021/07/29 10:39:23;;;;;;;7.68;3.70;;;34.60;40.70;;;;;;5027960;28;20097;-80
2021/07/29 10:41:56;;;;;;;6.18;3.38;;;34.70;41.40;;;;;;5028491;28;20486;-79
2021/07/29 10:44:43;;;;;;;4.32;3.33;;;34.50;42.00;;;;;;5027882;28;20040;-78
2021/07/29 10:47:14;;;;;;;4.32;3.13;;;34.30;42.50;;;;;;5027504;28;20033;-79
2021/07/29 10:49:49;;;;;;;7.20;3.50;;;34.00;42.50;;;;;;5028131;28;20030;-78
2021/07/29 10:52:16;;;;;;;9.98;4.28;;;33.90;43.50;;;;;;5027983;28;20025;-77
2021/07/29 10:54:43;;;;;;;4.90;3.80;;;34.00;43.30;;;;;;5027642;28;20025;-78
2021/07/29 10:57:11;;;;;;;6.05;3.70;;;34.00;43.30;;;;;;5027724;28;20828;-79
2021/07/29 10:59:38;;;;;;;5.32;3.70;;;33.60;43.50;;;;;;5027718;28;20045;-79
2021/07/29 11:02:09;;;;;;;4.78;3.40;;;33.30;44.80;;;;;;5027477;28;20053;-79
2021/07/29 11:04:54;;;;;;;5.13;3.40;;;33.40;44.80;;;;;;5027523;28;20554;-79
2021/07/29 11:07:20;;;;;;;7.23;3.70;;;33.60;44.50;;;;;;5010178;28;20018;-80
2021/07/29 11:09:46;;;;;;;5.18;4.32;;;33.80;44.50;;;;;;5009512;28;20291;-80
2021/07/29 11:12:17;;;;;;;5.07;4.07;;;34.00;44.20;;;;;;5009875;28;20387;-79
2021/07/29 11:14:43;;;;;;;3.92;3.35;;;34.00;44.00;;;;;;5009965;28;20112;-79
2021/07/29 11:17:10;;;;;;;6.57;3.95;;;34.10;43.60;;;;;;5009492;28;20025;-79
2021/07/29 11:19:43;;;;;;;5.60;4.35;;;34.00;42.70;;;;;;5027646;28;20022;-78
2021/07/29 11:22:10;;;;;;;5.60;3.50;;;33.80;43.20;;;;;;5027195;28;20025;-80
2021/07/29 11:24:36;;;;;;;6.22;4.45;;;33.80;42.90;;;;;;5027200;28;20025;-79
2021/07/29 11:27:07;;;;;;;4.88;4.25;;;33.60;43.00;;;;;;5027127;28;20036;-79
2021/07/29 11:29:33;;;;;;;5.68;4.10;;;33.70;43.00;;;;;;5027124;28;20033;-79
2021/07/29 11:31:59;;;;;;;5.63;3.80;;;33.60;43.00;;;;;;5008994;28;20022;-80
2021/07/29 11:34:32;;;;;;;4.10;3.65;;;33.60;42.60;;;;;;5026935;28;20033;-78
2021/07/29 11:36:58;;;;;;;5.03;4.28;;;33.60;42.60;;;;;;5009216;28;20518;-79
2021/07/29 11:39:25;;;;;;;3.97;3.50;;;33.70;42.70;;;;;;5009267;28;20032;-80
2021/07/29 11:41:56;;;;;;;5.38;3.35;;;33.70;41.60;;;;;;5026624;28;20029;-78
2021/07/29 11:44:23;;;;;;;4.40;3.25;;;33.80;41.70;;;;;;5026960;28;20029;-78
2021/07/29 11:46:58;;;;;;;4.40;3.75;;;33.80;41.00;;;;;;5027093;28;20022;-80
2021/07/29 11:49:25;;;;;;;5.60;4.47;;;33.80;41.10;;;;;;5026295;28;20039;-78
2021/07/29 11:52:10;;;;;;;5.93;3.40;;;33.80;41.80;;;;;;5026753;28;20038;-78
2021/07/29 11:54:37;;;;;;;5.03;3.40;;;33.70;41.30;;;;;;5027024;28;20049;-79
2021/07/29 11:57:03;;;;;;;3.75;3.15;;;33.60;40.10;;;;;;5008644;28;20034;-80
2021/07/29 11:59:43;;;;;;;4.00;3.55;;;33.60;40.70;;;;;;5026049;28;20394;-80
2021/07/29 12:02:10;;;;;;;3.50;3.20;;;33.70;40.50;;;;;;5008744;28;20048;-80
2021/07/29 12:04:40;;;;;;;11.20;3.20;;;33.70;40.20;;;;;;5009200;28;20179;-79
2021/07/29 12:07:08;;;;;;;4.03;2.70;;;33.70;40.30;;;;;;5026916;28;20501;-78
2021/07/29 12:09:35;;;;;;;4.07;3.20;;;33.60;38.50;;;;;;5008267;28;20116;-80
2021/07/29 12:12:01;;;;;;;4.50;2.70;;;33.60;38.50;;;;;;5008279;28;20452;-78
2021/07/29 12:14:28;;;;;;;4.95;3.08;;;33.60;38.00;;;;;;5026709;28;20025;-77
2021/07/29 12:16:55;;;;;;;10.48;2.80;;;33.60;37.90;;;;;;5009087;28;20397;-80
2021/07/29 12:19:22;;;;;;;4.63;3.45;;;33.70;38.20;;;;;;5026566;28;20057;-79
2021/07/29 12:21:49;;;;;;;3.25;2.67;;;33.70;38.30;;;;;;5026748;28;20075;-80
2021/07/29 12:24:15;;;;;;;3.33;2.65;;;33.70;38.60;;;;;;5008727;28;20029;-79
2021/07/29 12:26:41;;;;;;;4.45;3.20;;;33.70;38.40;;;;;;5026342;28;20167;-80
2021/07/29 12:29:08;;;;;;;3.88;2.78;;;33.70;38.20;;;;;;5008388;28;20356;-77
2021/07/29 12:31:33;;;;;;;4.18;2.42;;;33.70;38.60;;;;;;5026535;28;20405;-80
2021/07/29 12:34:04;;;;;;;3.60;3.03;;;33.70;38.60;;;;;;5026801;28;20021;-80
2021/07/29 12:36:47;;;;;;;3.50;2.42;;;33.70;38.10;;;;;;5008753;28;20054;-79
2021/07/29 12:39:16;;;;;;;9.02;2.33;;;33.60;37.30;;;;;;5025560;28;20033;-78
2021/07/29 12:41:44;;;;;;;5.35;1.90;;;33.60;37.50;;;;;;5024780;28;20483;-79
2021/07/29 12:44:16;;;;;;;4.05;1.70;;;33.70;36.50;;;;;;5025709;28;20041;-79
2021/07/29 12:46:43;;;;;;;6.07;1.65;;;33.70;35.50;;;;;;5029305;28;20386;-78
2021/07/29 12:49:09;;;;;;;2.88;1.80;;;33.60;35.80;;;;;;5012412;28;20123;-80